Time,TemperatureF,DewpointF,PressureIn,WindDirection,WindDirectionDegrees,WindSpeedMPH,WindSpeedGustMPH,Humidity,HourlyPrecipIn,Conditions,Clouds,dailyrainin,SoftwareType,DateUTC
2013-03-23 00:02:00,46.5,44.0,30.31,West,270,1.2,2.8,91,0.00,,,0.00,Rainwise IP-100,2013-03-23 07:02:00,
2013-03-23 00:07:00,46.6,44.0,30.31,West,270,1.9,4.4,91,0.00,,,0.00,Rainwise IP-100,2013-03-23 07:07:00,
2013-03-23 00:12:00,46.5,44.0,30.31,SSE,157,0.0,2.6,90,0.00,,,0.00,Rainwise IP-100,2013-03-23 07:12:00,
2013-03-23 00:17:00,46.4,43.0,30.31,West,270,2.1,4.2,90,0.00,,,0.00,Rainwise IP-100,2013-03-23 07:17:00,
2013-03-23 00:22:00,46.4,43.0,30.31,West,270,1.4,3.0,91,0.00,,,0.00,Rainwise IP-100,2013-03-23 07:22:00,
2013-03-23 00:27:00,46.4,44.0,30.31,WSW,247,0.0,4.7,92,0.00,,,0.00,Rainwise IP-100,2013-03-23 07:27:00,
2013-03-23 00:32:00,46.4,44.0,30.31,West,270,1.9,3.7,92,0.00,,,0.00,Rainwise IP-100,2013-03-23 07:32:00,
2013-03-23 00:37:00,46.4,44.0,30.31,WNW,292,1.4,3.3,92,0.00,,,0.00,Rainwise IP-100,2013-03-23 07:37:00,
2013-03-23 00:42:00,46.5,44.0,30.31,West,270,1.4,4.0,92,0.00,,,0.00,Rainwise IP-100,2013-03-23 07:42:00,
2013-03-23 00:47:00,46.5,44.0,30.31,West,270,3.0,3.5,92,0.00,,,0.00,Rainwise IP-100,2013-03-23 07:47:00,
2013-03-23 00:52:00,46.4,44.0,30.31,WNW,292,1.2,5.4,92,0.00,,,0.00,Rainwise IP-100,2013-03-23 07:52:00,
2013-03-23 00:57:00,46.4,43.0,30.31,WNW,292,0.0,4.4,91,0.00,,,0.00,Rainwise IP-100,2013-03-23 07:57:00,
2013-03-23 01:02:00,46.2,43.0,30.31,WNW,292,2.1,2.1,90,0.00,,,0.00,Rainwise IP-100,2013-03-23 08:02:00,
2013-03-23 01:07:00,46.3,42.0,30.31,WNW,292,2.1,4.0,88,0.00,,,0.00,Rainwise IP-100,2013-03-23 08:07:00,
2013-03-23 01:12:00,46.7,42.0,30.31,WNW,292,0.0,2.6,85,0.00,,,0.00,Rainwise IP-100,2013-03-23 08:12:00,
2013-03-23 01:17:00,46.9,42.0,30.31,WNW,292,0.0,0.0,83,0.00,,,0.00,Rainwise IP-100,2013-03-23 08:17:00,
2013-03-23 01:22:00,46.6,42.0,30.31,WNW,292,1.2,1.4,83,0.00,,,0.00,Rainwise IP-100,2013-03-23 08:22:00,
2013-03-23 01:27:00,46.3,41.0,30.30,WNW,292,0.0,1.4,84,0.00,,,0.00,Rainwise IP-100,2013-03-23 08:27:00,
2013-03-23 01:32:00,45.9,41.0,30.31,WNW,292,0.0,0.0,84,0.00,,,0.00,Rainwise IP-100,2013-03-23 08:32:00,
2013-03-23 01:37:00,45.5,41.0,30.31,WNW,292,1.9,1.9,84,0.00,,,0.00,Rainwise IP-100,2013-03-23 08:37:00,
2013-03-23 01:42:00,45.7,41.0,30.31,WNW,292,0.0,2.1,85,0.00,,,0.00,Rainwise IP-100,2013-03-23 08:42:00,
2013-03-23 01:47:00,45.9,41.0,30.31,WNW,292,1.9,1.9,85,0.00,,,0.00,Rainwise IP-100,2013-03-23 08:47:00,
2013-03-23 01:52:00,46.2,41.0,30.31,WNW,292,1.9,2.3,84,0.00,,,0.00,Rainwise IP-100,2013-03-23 08:52:00,
2013-03-23 01:57:00,46.6,42.0,30.31,WNW,292,1.9,2.1,84,0.00,,,0.00,Rainwise IP-100,2013-03-23 08:57:00,
2013-03-23 02:02:00,46.8,42.0,30.31,WNW,292,0.0,1.9,83,0.00,,,0.00,Rainwise IP-100,2013-03-23 09:02:00,
2013-03-23 02:07:00,46.7,41.0,30.31,WNW,292,0.0,1.2,82,0.00,,,0.00,Rainwise IP-100,2013-03-23 09:07:00,
2013-03-23 02:12:00,46.4,40.0,30.31,WNW,292,0.0,0.0,82,0.00,,,0.00,Rainwise IP-100,2013-03-23 09:12:00,
2013-03-23 02:17:00,46.2,40.0,30.31,WNW,292,0.0,0.0,82,0.00,,,0.00,Rainwise IP-100,2013-03-23 09:17:00,
2013-03-23 02:22:00,45.9,40.0,30.31,WNW,292,0.0,0.0,82,0.00,,,0.00,Rainwise IP-100,2013-03-23 09:22:00,
2013-03-23 02:27:00,45.5,40.0,30.31,WNW,292,0.0,0.0,82,0.00,,,0.00,Rainwise IP-100,2013-03-23 09:27:00,
2013-03-23 02:32:00,45.3,40.0,30.31,NNW,337,2.1,2.1,82,0.00,,,0.00,Rainwise IP-100,2013-03-23 09:32:00,
2013-03-23 02:37:00,45.4,40.0,30.31,NNE,22,2.6,3.0,83,0.00,,,0.00,Rainwise IP-100,2013-03-23 09:37:00,
2013-03-23 02:42:00,46.2,40.0,30.31,NNE,22,2.1,3.0,81,0.00,,,0.00,Rainwise IP-100,2013-03-23 09:42:00,
2013-03-23 02:47:00,47.0,40.0,30.31,NNE,22,1.6,2.3,79,0.00,,,0.00,Rainwise IP-100,2013-03-23 09:47:00,
2013-03-23 02:52:00,47.1,40.0,30.31,NNE,22,2.3,2.3,77,0.00,,,0.00,Rainwise IP-100,2013-03-23 09:52:00,
2013-03-23 02:57:00,47.0,40.0,30.31,NNE,22,0.0,2.3,77,0.00,,,0.00,Rainwise IP-100,2013-03-23 09:57:00,
2013-03-23 03:02:00,46.8,40.0,30.31,NNE,22,0.0,1.4,78,0.00,,,0.00,Rainwise IP-100,2013-03-23 10:02:00,
2013-03-23 03:07:00,46.5,40.0,30.30,NNE,22,0.0,0.0,78,0.00,,,0.00,Rainwise IP-100,2013-03-23 10:07:00,
2013-03-23 03:12:00,46.3,39.0,30.31,NNE,22,0.0,0.0,79,0.00,,,0.00,Rainwise IP-100,2013-03-23 10:12:00,
2013-03-23 03:17:00,46.2,39.0,30.31,NNE,22,2.3,3.3,79,0.00,,,0.00,Rainwise IP-100,2013-03-23 10:17:00,
2013-03-23 03:22:00,46.6,40.0,30.30,NNE,22,1.2,3.5,78,0.00,,,0.00,Rainwise IP-100,2013-03-23 10:22:00,
2013-03-23 03:27:00,47.1,40.0,30.31,NNE,22,0.0,2.1,77,0.00,,,0.00,Rainwise IP-100,2013-03-23 10:27:00,
2013-03-23 03:32:00,47.2,39.0,30.30,NNE,22,1.2,2.1,75,0.00,,,0.00,Rainwise IP-100,2013-03-23 10:32:00,
2013-03-23 03:37:00,47.2,39.0,30.30,NNE,22,0.0,1.4,74,0.00,,,0.00,Rainwise IP-100,2013-03-23 10:37:00,
2013-03-23 03:42:00,47.2,38.0,30.30,NNE,22,1.2,2.1,73,0.00,,,0.00,Rainwise IP-100,2013-03-23 10:42:00,
2013-03-23 03:47:00,47.3,38.0,30.30,NNE,22,2.3,3.3,71,0.00,,,0.00,Rainwise IP-100,2013-03-23 10:47:00,
2013-03-23 03:52:00,47.9,38.0,30.30,NE,45,2.6,4.7,68,0.00,,,0.00,Rainwise IP-100,2013-03-23 10:52:00,
2013-03-23 03:57:00,48.7,38.0,30.30,NE,45,3.5,4.4,65,0.00,,,0.00,Rainwise IP-100,2013-03-23 10:57:00,
2013-03-23 04:02:00,49.2,37.0,30.30,ENE,67,1.2,5.8,62,0.00,,,0.00,Rainwise IP-100,2013-03-23 11:02:00,
2013-03-23 04:07:00,49.6,37.0,30.30,ENE,67,1.2,4.7,62,0.00,,,0.00,Rainwise IP-100,2013-03-23 11:07:00,
2013-03-23 04:12:00,49.7,37.0,30.31,NNW,337,0.0,2.3,61,0.00,,,0.00,Rainwise IP-100,2013-03-23 11:12:00,
2013-03-23 04:17:00,49.5,37.0,30.30,NNW,337,0.0,1.4,61,0.00,,,0.00,Rainwise IP-100,2013-03-23 11:17:00,
2013-03-23 04:22:00,48.9,37.0,30.30,SSW,202,1.2,2.1,64,0.00,,,0.00,Rainwise IP-100,2013-03-23 11:22:00,
2013-03-23 04:27:00,47.9,39.0,30.30,ESE,112,0.0,2.6,70,0.00,,,0.00,Rainwise IP-100,2013-03-23 11:27:00,
2013-03-23 04:32:00,47.0,38.0,30.30,ESE,112,0.0,0.0,73,0.00,,,0.00,Rainwise IP-100,2013-03-23 11:32:00,
2013-03-23 04:37:00,46.7,38.0,30.30,NNE,22,0.0,1.2,72,0.00,,,0.00,Rainwise IP-100,2013-03-23 11:37:00,
2013-03-23 04:42:00,47.0,37.0,30.30,NNE,22,0.0,1.2,68,0.00,,,0.00,Rainwise IP-100,2013-03-23 11:42:00,
2013-03-23 04:47:00,47.6,36.0,30.30,East,90,0.0,1.4,63,0.00,,,0.00,Rainwise IP-100,2013-03-23 11:47:00,
2013-03-23 04:52:00,48.1,35.0,30.30,NNW,337,0.0,1.6,60,0.00,,,0.00,Rainwise IP-100,2013-03-23 11:52:00,
2013-03-23 04:57:00,48.6,35.0,30.30,NE,45,0.0,3.0,57,0.00,,,0.00,Rainwise IP-100,2013-03-23 11:57:00,
2013-03-23 05:02:00,49.0,33.0,30.30,ENE,67,0.0,0.0,55,0.00,,,0.00,Rainwise IP-100,2013-03-23 12:02:00,
2013-03-23 05:07:00,49.0,33.0,30.30,ENE,67,0.0,1.2,55,0.00,,,0.00,Rainwise IP-100,2013-03-23 12:07:00,
2013-03-23 05:12:00,48.6,35.0,30.30,ENE,67,0.0,0.0,57,0.00,,,0.00,Rainwise IP-100,2013-03-23 12:12:00,
2013-03-23 05:17:00,48.0,35.0,30.30,WNW,292,2.6,2.6,59,0.00,,,0.00,Rainwise IP-100,2013-03-23 12:17:00,
2013-03-23 05:22:00,47.6,36.0,30.30,WNW,292,0.0,3.3,63,0.00,,,0.00,Rainwise IP-100,2013-03-23 12:22:00,
2013-03-23 05:27:00,47.3,37.0,30.30,WNW,292,0.0,1.9,66,0.00,,,0.00,Rainwise IP-100,2013-03-23 12:27:00,
2013-03-23 05:32:00,47.1,37.0,30.30,WNW,292,0.0,2.3,68,0.00,,,0.00,Rainwise IP-100,2013-03-23 12:32:00,
2013-03-23 05:37:00,46.9,38.0,30.30,WSW,247,2.3,2.3,72,0.00,,,0.00,Rainwise IP-100,2013-03-23 12:37:00,
2013-03-23 05:42:00,46.8,40.0,30.30,WNW,292,1.4,2.3,77,0.00,,,0.00,Rainwise IP-100,2013-03-23 12:42:00,
2013-03-23 05:47:00,46.4,40.0,30.30,WNW,292,0.0,1.6,80,0.00,,,0.00,Rainwise IP-100,2013-03-23 12:47:00,
2013-03-23 05:52:00,46.0,41.0,30.31,WNW,292,0.0,0.0,83,0.00,,,0.00,Rainwise IP-100,2013-03-23 12:52:00,
2013-03-23 05:57:00,45.6,41.0,30.30,WNW,292,0.0,0.0,85,0.00,,,0.00,Rainwise IP-100,2013-03-23 12:57:00,
2013-03-23 06:02:00,45.2,40.0,30.31,ENE,67,2.3,2.3,83,0.00,,,0.00,Rainwise IP-100,2013-03-23 13:02:00,
2013-03-23 06:07:00,45.7,39.0,30.31,East,90,2.6,5.8,76,0.00,,,0.00,Rainwise IP-100,2013-03-23 13:07:00,
2013-03-23 06:12:00,46.9,36.0,30.31,ENE,67,0.0,3.3,67,0.00,,,0.00,Rainwise IP-100,2013-03-23 13:12:00,
2013-03-23 06:17:00,47.7,36.0,30.31,ESE,112,0.0,3.3,63,0.00,,,0.00,Rainwise IP-100,2013-03-23 13:17:00,
2013-03-23 06:22:00,48.0,36.0,30.31,ESE,112,3.3,3.5,62,0.00,,,0.00,Rainwise IP-100,2013-03-23 13:22:00,
2013-03-23 06:27:00,48.3,36.0,30.31,East,90,1.4,9.1,61,0.00,,,0.00,Rainwise IP-100,2013-03-23 13:27:00,
2013-03-23 06:32:00,48.6,36.0,30.32,East,90,1.2,6.3,61,0.00,,,0.00,Rainwise IP-100,2013-03-23 13:32:00,
2013-03-23 06:37:00,48.6,36.0,30.31,ENE,67,3.3,7.5,61,0.00,,,0.00,Rainwise IP-100,2013-03-23 13:37:00,
2013-03-23 06:42:00,48.4,36.0,30.31,ENE,67,2.1,5.6,61,0.00,,,0.00,Rainwise IP-100,2013-03-23 13:42:00,
2013-03-23 06:47:00,48.4,36.0,30.31,East,90,2.8,7.0,62,0.00,,,0.00,Rainwise IP-100,2013-03-23 13:47:00,
2013-03-23 06:52:00,48.3,36.0,30.31,NNE,22,3.5,7.0,62,0.00,,,0.00,Rainwise IP-100,2013-03-23 13:52:00,
2013-03-23 06:57:00,48.6,36.0,30.31,ENE,67,0.0,10.0,60,0.00,,,0.00,Rainwise IP-100,2013-03-23 13:57:00,
2013-03-23 07:02:00,49.0,36.0,30.31,ENE,67,2.8,7.2,59,0.00,,,0.00,Rainwise IP-100,2013-03-23 14:02:00,
2013-03-23 07:07:00,49.1,35.0,30.31,ENE,67,1.2,8.2,58,0.00,,,0.00,Rainwise IP-100,2013-03-23 14:07:00,
2013-03-23 07:12:00,49.2,35.0,30.32,NE,45,2.3,10.0,57,0.00,,,0.00,Rainwise IP-100,2013-03-23 14:12:00,
2013-03-23 07:17:00,49.5,35.0,30.33,WSW,247,0.0,5.8,56,0.00,,,0.00,Rainwise IP-100,2013-03-23 14:17:00,
2013-03-23 07:22:00,49.3,35.0,30.33,SE,135,0.0,3.0,57,0.00,,,0.00,Rainwise IP-100,2013-03-23 14:22:00,
2013-03-23 07:27:00,48.6,36.0,30.33,WSW,247,1.4,5.1,61,0.00,,,0.00,Rainwise IP-100,2013-03-23 14:27:00,
2013-03-23 07:33:00,48.2,37.0,30.33,WSW,247,0.0,4.0,64,0.00,,,0.00,Rainwise IP-100,2013-03-23 14:33:00,
2013-03-23 07:38:00,48.3,37.0,30.34,WNW,292,1.6,2.3,64,0.00,,,0.00,Rainwise IP-100,2013-03-23 14:38:00,
2013-03-23 07:43:00,48.5,37.0,30.34,SW,225,2.3,2.3,64,0.00,,,0.00,Rainwise IP-100,2013-03-23 14:43:00,
2013-03-23 07:48:00,48.8,37.0,30.35,SW,225,1.6,3.3,63,0.00,,,0.00,Rainwise IP-100,2013-03-23 14:48:00,
2013-03-23 07:53:00,49.2,37.0,30.35,NNW,337,0.0,2.3,62,0.00,,,0.00,Rainwise IP-100,2013-03-23 14:53:00,
2013-03-23 07:58:00,49.6,37.0,30.35,WNW,292,0.0,0.0,62,0.00,,,0.00,Rainwise IP-100,2013-03-23 14:58:00,
2013-03-23 08:03:00,50.1,37.0,30.35,South,180,0.0,2.1,62,0.00,,,0.00,Rainwise IP-100,2013-03-23 15:03:00,
2013-03-23 08:08:00,50.7,38.0,30.35,SE,135,1.4,2.8,61,0.00,,,0.00,Rainwise IP-100,2013-03-23 15:08:00,
2013-03-23 08:13:00,51.2,38.0,30.36,South,180,1.4,1.9,61,0.00,,,0.00,Rainwise IP-100,2013-03-23 15:13:00,
2013-03-23 08:18:00,51.4,38.0,30.36,SSE,157,0.0,3.0,61,0.00,,,0.00,Rainwise IP-100,2013-03-23 15:18:00,
2013-03-23 08:23:00,51.6,39.0,30.36,SSE,157,0.0,2.6,61,0.00,,,0.00,Rainwise IP-100,2013-03-23 15:23:00,
2013-03-23 08:28:00,51.9,38.0,30.36,ENE,67,1.6,4.0,60,0.00,,,0.00,Rainwise IP-100,2013-03-23 15:28:00,
2013-03-23 08:33:00,52.7,38.0,30.37,SE,135,0.0,7.2,58,0.00,,,0.00,Rainwise IP-100,2013-03-23 15:33:00,
2013-03-23 08:38:00,53.5,37.0,30.37,NE,45,4.2,9.1,54,0.00,,,0.00,Rainwise IP-100,2013-03-23 15:38:00,
2013-03-23 08:43:00,53.7,36.0,30.37,NNE,22,0.0,8.4,51,0.00,,,0.00,Rainwise IP-100,2013-03-23 15:43:00,
2013-03-23 08:48:00,54.1,36.0,30.37,NE,45,4.9,6.8,50,0.00,,,0.00,Rainwise IP-100,2013-03-23 15:48:00,
2013-03-23 08:53:00,54.7,37.0,30.37,ENE,67,0.0,6.8,50,0.00,,,0.00,Rainwise IP-100,2013-03-23 15:53:00,
2013-03-23 08:58:00,55.3,37.0,30.37,NNE,22,2.1,4.7,50,0.00,,,0.00,Rainwise IP-100,2013-03-23 15:58:00,
2013-03-23 09:03:00,55.7,37.0,30.37,SSE,157,2.1,9.3,49,0.00,,,0.00,Rainwise IP-100,2013-03-23 16:03:00,
2013-03-23 09:08:00,55.6,37.0,30.37,NE,45,5.6,7.5,48,0.00,,,0.00,Rainwise IP-100,2013-03-23 16:08:00,
2013-03-23 09:13:00,55.6,36.0,30.36,ENE,67,1.6,6.8,47,0.00,,,0.00,Rainwise IP-100,2013-03-23 16:13:00,
2013-03-23 09:18:00,55.9,35.0,30.36,NNE,22,3.3,8.2,44,0.00,,,0.00,Rainwise IP-100,2013-03-23 16:18:00,
2013-03-23 09:23:00,55.8,33.0,30.36,NE,45,5.1,11.2,42,0.00,,,0.00,Rainwise IP-100,2013-03-23 16:23:00,
2013-03-23 09:28:00,55.8,33.0,30.36,East,90,1.2,7.0,42,0.00,,,0.00,Rainwise IP-100,2013-03-23 16:28:00,
2013-03-23 09:33:00,56.1,35.0,30.36,ESE,112,2.6,9.1,44,0.00,,,0.00,Rainwise IP-100,2013-03-23 16:33:00,
2013-03-23 09:38:00,56.5,37.0,30.36,ESE,112,5.4,6.5,47,0.00,,,0.00,Rainwise IP-100,2013-03-23 16:38:00,
2013-03-23 09:43:00,56.7,38.0,30.36,ESE,112,1.4,5.6,49,0.00,,,0.00,Rainwise IP-100,2013-03-23 16:43:00,
2013-03-23 09:48:00,57.2,37.0,30.36,SSE,157,4.0,5.6,47,0.00,,,0.00,Rainwise IP-100,2013-03-23 16:48:00,
2013-03-23 09:53:00,57.7,37.0,30.36,ESE,112,1.2,5.1,45,0.00,,,0.00,Rainwise IP-100,2013-03-23 16:53:00,
2013-03-23 09:58:00,58.0,35.0,30.36,ESE,112,4.7,7.7,41,0.00,,,0.00,Rainwise IP-100,2013-03-23 16:58:00,
2013-03-23 10:03:00,58.1,32.0,30.36,ESE,112,2.8,8.6,37,0.00,,,0.00,Rainwise IP-100,2013-03-23 17:03:00,
2013-03-23 10:08:00,58.2,31.0,30.36,ESE,112,4.9,7.2,35,0.00,,,0.00,Rainwise IP-100,2013-03-23 17:08:00,
2013-03-23 10:13:00,58.4,32.0,30.36,ESE,112,1.4,7.2,36,0.00,,,0.00,Rainwise IP-100,2013-03-23 17:13:00,
2013-03-23 10:18:00,58.8,33.0,30.36,SSE,157,2.6,5.4,37,0.00,,,0.00,Rainwise IP-100,2013-03-23 17:18:00,
2013-03-23 10:23:00,59.4,33.0,30.37,SSE,157,3.7,6.1,38,0.00,,,0.00,Rainwise IP-100,2013-03-23 17:23:00,
2013-03-23 10:28:00,59.7,33.0,30.37,SSE,157,3.7,7.5,37,0.00,,,0.00,Rainwise IP-100,2013-03-23 17:28:00,
2013-03-23 10:33:00,59.2,32.0,30.36,SSE,157,4.7,7.2,36,0.00,,,0.00,Rainwise IP-100,2013-03-23 17:33:00,
2013-03-23 10:38:00,58.7,32.0,30.37,SSE,157,2.6,6.1,35,0.00,,,0.00,Rainwise IP-100,2013-03-23 17:38:00,
2013-03-23 10:43:00,58.8,31.0,30.37,SSE,157,2.8,5.8,34,0.00,,,0.00,Rainwise IP-100,2013-03-23 17:43:00,
2013-03-23 10:48:00,59.4,31.0,30.37,East,90,6.5,6.5,34,0.00,,,0.00,Rainwise IP-100,2013-03-23 17:48:00,
2013-03-23 10:53:00,59.8,32.0,30.37,ESE,112,4.9,7.5,34,0.00,,,0.00,Rainwise IP-100,2013-03-23 17:53:00,
2013-03-23 10:58:00,59.9,32.0,30.37,ENE,67,2.3,6.8,34,0.00,,,0.00,Rainwise IP-100,2013-03-23 17:58:00,
2013-03-23 11:03:00,60.2,32.0,30.37,South,180,1.6,6.8,34,0.00,,,0.00,Rainwise IP-100,2013-03-23 18:03:00,
2013-03-23 11:08:00,60.7,32.0,30.36,SSE,157,4.4,7.2,34,0.00,,,0.00,Rainwise IP-100,2013-03-23 18:08:00,
2013-03-23 11:13:00,61.2,32.0,30.36,ESE,112,3.3,7.0,34,0.00,,,0.00,Rainwise IP-100,2013-03-23 18:13:00,
2013-03-23 11:18:00,61.2,32.0,30.36,ENE,67,3.5,4.9,34,0.00,,,0.00,Rainwise IP-100,2013-03-23 18:18:00,
2013-03-23 11:23:00,61.6,32.0,30.36,East,90,3.0,5.8,33,0.00,,,0.00,Rainwise IP-100,2013-03-23 18:23:00,
2013-03-23 11:28:00,62.4,32.0,30.36,SSE,157,3.5,8.6,32,0.00,,,0.00,Rainwise IP-100,2013-03-23 18:28:00,
2013-03-23 11:33:00,62.3,32.0,30.36,ENE,67,2.3,7.9,31,0.00,,,0.00,Rainwise IP-100,2013-03-23 18:33:00,
2013-03-23 11:38:00,62.1,31.0,30.36,NNE,22,0.0,6.8,31,0.00,,,0.00,Rainwise IP-100,2013-03-23 18:38:00,
2013-03-23 11:43:00,62.6,31.0,30.36,ESE,112,3.5,6.5,30,0.00,,,0.00,Rainwise IP-100,2013-03-23 18:43:00,
2013-03-23 11:48:00,62.8,31.0,30.36,East,90,5.4,7.7,30,0.00,,,0.00,Rainwise IP-100,2013-03-23 18:48:00,
2013-03-23 11:53:00,63.0,31.0,30.36,East,90,3.0,7.9,30,0.00,,,0.00,Rainwise IP-100,2013-03-23 18:53:00,
2013-03-23 11:58:00,63.3,32.0,30.36,ESE,112,7.0,7.5,30,0.00,,,0.00,Rainwise IP-100,2013-03-23 18:58:00,
2013-03-23 12:03:00,63.2,31.0,30.35,ESE,112,4.4,7.0,30,0.00,,,0.00,Rainwise IP-100,2013-03-23 19:03:00,
2013-03-23 12:08:00,63.0,31.0,30.35,SE,135,4.0,6.5,30,0.00,,,0.00,Rainwise IP-100,2013-03-23 19:08:00,
2013-03-23 12:13:00,63.0,31.0,30.35,ESE,112,2.1,7.0,30,0.00,,,0.00,Rainwise IP-100,2013-03-23 19:13:00,
2013-03-23 12:18:00,63.5,31.0,30.35,South,180,3.5,5.8,29,0.00,,,0.00,Rainwise IP-100,2013-03-23 19:18:00,
2013-03-23 12:23:00,64.2,31.0,30.35,SSW,202,2.3,5.8,28,0.00,,,0.00,Rainwise IP-100,2013-03-23 19:23:00,
2013-03-23 12:28:00,64.6,29.0,30.34,SSE,157,3.7,5.8,27,0.00,,,0.00,Rainwise IP-100,2013-03-23 19:28:00,
2013-03-23 12:33:00,64.6,29.0,30.34,ESE,112,2.6,6.3,26,0.00,,,0.00,Rainwise IP-100,2013-03-23 19:33:00,
2013-03-23 12:38:00,64.6,28.0,30.34,West,270,1.9,9.6,25,0.00,,,0.00,Rainwise IP-100,2013-03-23 19:38:00,
2013-03-23 12:43:00,64.5,28.0,30.34,NW,315,3.0,9.3,24,0.00,,,0.00,Rainwise IP-100,2013-03-23 19:43:00,
2013-03-23 12:48:00,64.9,26.0,30.34,West,270,1.9,4.9,23,0.00,,,0.00,Rainwise IP-100,2013-03-23 19:48:00,
2013-03-23 12:53:00,65.6,26.0,30.33,NNW,337,1.4,4.2,23,0.00,,,0.00,Rainwise IP-100,2013-03-23 19:53:00,
2013-03-23 12:58:00,65.8,33.0,30.33,North,360,1.4,6.3,29,0.00,,,0.00,Rainwise IP-100,2013-03-23 19:58:00,
2013-03-23 13:03:00,65.7,38.0,30.34,SW,225,4.0,9.1,37,0.00,,,0.00,Rainwise IP-100,2013-03-23 20:03:00,
2013-03-23 13:08:00,64.5,40.0,30.34,SW,225,8.4,10.5,41,0.00,,,0.00,Rainwise IP-100,2013-03-23 20:08:00,
2013-03-23 13:13:00,62.8,42.0,30.33,West,270,5.8,12.1,47,0.00,,,0.00,Rainwise IP-100,2013-03-23 20:13:00,
2013-03-23 13:18:00,62.7,43.0,30.33,SW,225,5.8,9.6,49,0.00,,,0.00,Rainwise IP-100,2013-03-23 20:18:00,
2013-03-23 13:23:00,62.0,44.0,30.33,WNW,292,3.0,11.4,51,0.00,,,0.00,Rainwise IP-100,2013-03-23 20:23:00,
2013-03-23 13:28:00,61.6,44.0,30.33,SSW,202,0.0,9.3,52,0.00,,,0.00,Rainwise IP-100,2013-03-23 20:28:00,
2013-03-23 13:33:00,62.7,45.0,30.32,SE,135,0.0,6.5,52,0.00,,,0.00,Rainwise IP-100,2013-03-23 20:33:00,
2013-03-23 13:38:00,62.8,45.0,30.33,SW,225,7.9,10.0,51,0.00,,,0.00,Rainwise IP-100,2013-03-23 20:38:00,
2013-03-23 13:43:00,62.6,44.0,30.32,SSW,202,7.0,9.3,50,0.00,,,0.00,Rainwise IP-100,2013-03-23 20:43:00,
2013-03-23 13:48:00,63.3,44.0,30.33,NNW,337,1.2,7.7,49,0.00,,,0.00,Rainwise IP-100,2013-03-23 20:48:00,
2013-03-23 13:53:00,63.3,44.0,30.32,SW,225,2.1,8.4,49,0.00,,,0.00,Rainwise IP-100,2013-03-23 20:53:00,
2013-03-23 13:58:00,62.9,43.0,30.32,West,270,4.9,7.9,49,0.00,,,0.00,Rainwise IP-100,2013-03-23 20:58:00,
2013-03-23 14:03:00,62.4,43.0,30.32,West,270,3.7,11.7,49,0.00,,,0.00,Rainwise IP-100,2013-03-23 21:03:00,
2013-03-23 14:08:00,61.9,42.0,30.32,West,270,2.3,10.0,49,0.00,,,0.00,Rainwise IP-100,2013-03-23 21:08:00,
2013-03-23 14:13:00,62.2,42.0,30.33,WNW,292,7.9,13.1,48,0.00,,,0.00,Rainwise IP-100,2013-03-23 21:13:00,
2013-03-23 14:18:00,61.3,41.0,30.32,SW,225,3.5,12.4,47,0.00,,,0.00,Rainwise IP-100,2013-03-23 21:18:00,
2013-03-23 14:23:00,60.2,40.0,30.32,WSW,247,3.7,12.4,48,0.00,,,0.00,Rainwise IP-100,2013-03-23 21:23:00,
2013-03-23 14:28:00,60.2,40.0,30.32,WNW,292,6.5,9.3,48,0.00,,,0.00,Rainwise IP-100,2013-03-23 21:28:00,
2013-03-23 14:33:00,60.1,40.0,30.33,NNE,22,1.2,13.8,49,0.00,,,0.00,Rainwise IP-100,2013-03-23 21:33:00,
2013-03-23 14:38:00,59.1,40.0,30.32,WNW,292,10.0,15.4,49,0.00,,,0.00,Rainwise IP-100,2013-03-23 21:38:00,
2013-03-23 14:43:00,58.2,40.0,30.32,WNW,292,1.6,11.7,50,0.00,,,0.00,Rainwise IP-100,2013-03-23 21:43:00,
2013-03-23 14:48:00,58.0,40.0,30.32,WSW,247,1.2,9.8,50,0.00,,,0.00,Rainwise IP-100,2013-03-23 21:48:00,
2013-03-23 14:53:00,58.1,40.0,30.31,WSW,247,2.8,8.9,50,0.00,,,0.00,Rainwise IP-100,2013-03-23 21:53:00,
2013-03-23 14:58:00,58.1,40.0,30.31,West,270,4.2,10.3,50,0.00,,,0.00,Rainwise IP-100,2013-03-23 21:58:00,
2013-03-23 15:03:00,57.5,39.0,30.31,WSW,247,4.9,12.6,51,0.00,,,0.00,Rainwise IP-100,2013-03-23 22:03:00,
2013-03-23 15:08:00,56.6,39.0,30.31,WNW,292,0.0,11.2,53,0.00,,,0.00,Rainwise IP-100,2013-03-23 22:08:00,
2013-03-23 15:13:00,56.1,39.0,30.31,West,270,8.4,9.8,53,0.00,,,0.00,Rainwise IP-100,2013-03-23 22:13:00,
2013-03-23 15:18:00,56.1,39.0,30.31,WNW,292,4.7,8.6,53,0.00,,,0.00,Rainwise IP-100,2013-03-23 22:18:00,
2013-03-23 15:23:00,56.2,39.0,30.31,WNW,292,3.0,11.2,54,0.00,,,0.00,Rainwise IP-100,2013-03-23 22:23:00,
2013-03-23 15:28:00,56.4,40.0,30.31,NW,315,4.4,12.8,55,0.00,,,0.00,Rainwise IP-100,2013-03-23 22:28:00,
2013-03-23 15:33:00,56.4,40.0,30.31,WNW,292,2.3,10.0,54,0.00,,,0.00,Rainwise IP-100,2013-03-23 22:33:00,
2013-03-23 15:38:00,56.4,40.0,30.31,WSW,247,5.8,7.9,54,0.00,,,0.00,Rainwise IP-100,2013-03-23 22:38:00,
2013-03-23 15:43:00,56.4,40.0,30.31,West,270,12.8,12.8,55,0.00,,,0.00,Rainwise IP-100,2013-03-23 22:43:00,
2013-03-23 15:48:00,55.9,40.0,30.30,WNW,292,12.4,14.5,55,0.00,,,0.00,Rainwise IP-100,2013-03-23 22:48:00,
2013-03-23 15:53:00,55.5,40.0,30.31,SSW,202,1.6,16.8,55,0.00,,,0.00,Rainwise IP-100,2013-03-23 22:53:00,
2013-03-23 15:59:00,55.6,40.0,30.30,WSW,247,8.4,14.0,56,0.00,,,0.00,Rainwise IP-100,2013-03-23 22:59:00,
2013-03-23 16:04:00,55.9,41.0,30.30,NE,45,1.2,12.4,57,0.00,,,0.00,Rainwise IP-100,2013-03-23 23:04:00,
2013-03-23 16:09:00,56.3,41.0,30.30,West,270,3.5,10.5,56,0.00,,,0.00,Rainwise IP-100,2013-03-23 23:09:00,
2013-03-23 16:14:00,56.8,41.0,30.30,SSW,202,4.2,11.2,55,0.00,,,0.00,Rainwise IP-100,2013-03-23 23:14:00,
2013-03-23 16:19:00,56.9,40.0,30.30,WSW,247,4.2,14.5,54,0.00,,,0.00,Rainwise IP-100,2013-03-23 23:19:00,
2013-03-23 16:24:00,56.7,40.0,30.30,WNW,292,14.7,16.8,54,0.00,,,0.00,Rainwise IP-100,2013-03-23 23:24:00,
2013-03-23 16:29:00,56.7,39.0,30.30,WNW,292,4.0,14.7,53,0.00,,,0.00,Rainwise IP-100,2013-03-23 23:29:00,
2013-03-23 16:34:00,57.5,39.0,30.30,WNW,292,7.0,10.3,51,0.00,,,0.00,Rainwise IP-100,2013-03-23 23:34:00,
2013-03-23 16:39:00,57.5,39.0,30.30,WNW,292,11.4,17.0,49,0.00,,,0.00,Rainwise IP-100,2013-03-23 23:39:00,
2013-03-23 16:44:00,57.1,38.0,30.30,WNW,292,9.3,13.3,48,0.00,,,0.00,Rainwise IP-100,2013-03-23 23:44:00,
2013-03-23 16:49:00,57.2,37.0,30.30,WSW,247,7.9,13.5,46,0.00,,,0.00,Rainwise IP-100,2013-03-23 23:49:00,
2013-03-23 16:54:00,57.8,37.0,30.30,NNE,22,1.2,13.3,44,0.00,,,0.00,Rainwise IP-100,2013-03-23 23:54:00,
2013-03-23 16:59:00,58.5,36.0,30.29,WNW,292,9.1,11.4,42,0.00,,,0.00,Rainwise IP-100,2013-03-23 23:59:00,
2013-03-23 17:04:00,58.7,36.0,30.29,WSW,247,2.3,12.8,42,0.00,,,0.00,Rainwise IP-100,2013-03-24 00:04:00,
2013-03-23 17:09:00,58.4,36.0,30.30,West,270,1.4,13.8,42,0.00,,,0.00,Rainwise IP-100,2013-03-24 00:09:00,
2013-03-23 17:14:00,58.3,36.0,30.29,West,270,8.4,12.6,43,0.00,,,0.00,Rainwise IP-100,2013-03-24 00:14:00,
2013-03-23 17:19:00,58.1,37.0,30.29,WSW,247,1.9,9.3,45,0.00,,,0.00,Rainwise IP-100,2013-03-24 00:19:00,
2013-03-23 17:24:00,57.7,38.0,30.29,WNW,292,7.7,15.9,47,0.00,,,0.00,Rainwise IP-100,2013-03-24 00:24:00,
2013-03-23 17:29:00,57.2,39.0,30.29,West,270,2.8,12.8,50,0.00,,,0.00,Rainwise IP-100,2013-03-24 00:29:00,
2013-03-23 17:34:00,56.7,40.0,30.29,WSW,247,6.3,19.6,55,0.00,,,0.00,Rainwise IP-100,2013-03-24 00:34:00,
2013-03-23 17:39:00,56.3,42.0,30.30,WSW,247,3.7,10.3,59,0.00,,,0.00,Rainwise IP-100,2013-03-24 00:39:00,
2013-03-23 17:44:00,55.7,42.0,30.30,West,270,3.3,14.2,61,0.00,,,0.00,Rainwise IP-100,2013-03-24 00:44:00,
2013-03-23 17:49:00,55.2,42.0,30.29,WNW,292,5.8,14.7,62,0.00,,,0.00,Rainwise IP-100,2013-03-24 00:49:00,
2013-03-23 17:54:00,54.8,42.0,30.29,WSW,247,2.8,15.6,62,0.00,,,0.00,Rainwise IP-100,2013-03-24 00:54:00,
2013-03-23 17:59:00,54.6,42.0,30.29,WNW,292,1.9,10.5,62,0.00,,,0.00,Rainwise IP-100,2013-03-24 00:59:00,
2013-03-23 18:04:00,54.4,42.0,30.30,SSW,202,1.9,12.6,63,0.00,,,0.00,Rainwise IP-100,2013-03-24 01:04:00,
2013-03-23 18:09:00,54.1,42.0,30.29,WNW,292,3.7,8.4,65,0.00,,,0.00,Rainwise IP-100,2013-03-24 01:09:00,
2013-03-23 18:14:00,53.8,43.0,30.29,WSW,247,4.4,14.2,67,0.00,,,0.00,Rainwise IP-100,2013-03-24 01:14:00,
2013-03-23 18:19:00,53.6,43.0,30.29,West,270,4.9,7.9,68,0.00,,,0.00,Rainwise IP-100,2013-03-24 01:19:00,
2013-03-23 18:24:00,53.6,43.0,30.29,WNW,292,2.6,12.6,68,0.00,,,0.00,Rainwise IP-100,2013-03-24 01:24:00,
2013-03-23 18:29:00,53.4,43.0,30.29,West,270,9.8,13.3,68,0.00,,,0.00,Rainwise IP-100,2013-03-24 01:29:00,
2013-03-23 18:34:00,53.0,42.0,30.29,WNW,292,7.2,12.6,68,0.00,,,0.00,Rainwise IP-100,2013-03-24 01:34:00,
2013-03-23 18:39:00,52.9,42.0,30.29,WNW,292,5.6,7.5,68,0.00,,,0.00,Rainwise IP-100,2013-03-24 01:39:00,
2013-03-23 18:44:00,52.9,42.0,30.29,WSW,247,3.3,11.7,67,0.00,,,0.00,Rainwise IP-100,2013-03-24 01:44:00,
2013-03-23 18:49:00,52.7,42.0,30.29,SW,225,3.5,10.7,68,0.00,,,0.00,Rainwise IP-100,2013-03-24 01:49:00,
2013-03-23 18:54:00,52.2,42.0,30.30,West,270,9.1,9.6,70,0.00,,,0.00,Rainwise IP-100,2013-03-24 01:54:00,
2013-03-23 18:59:00,51.7,43.0,30.30,WSW,247,3.7,9.6,72,0.00,,,0.00,Rainwise IP-100,2013-03-24 01:59:00,
2013-03-23 19:04:00,51.1,43.0,30.30,WNW,292,2.1,13.3,73,0.00,,,0.00,Rainwise IP-100,2013-03-24 02:04:00,
2013-03-23 19:09:00,50.8,44.0,30.30,South,180,2.1,10.3,75,0.00,,,0.00,Rainwise IP-100,2013-03-24 02:09:00,
2013-03-23 19:14:00,50.6,43.0,30.29,West,270,5.1,8.6,76,0.00,,,0.00,Rainwise IP-100,2013-03-24 02:14:00,
2013-03-23 19:19:00,50.3,43.0,30.30,WNW,292,1.2,9.3,76,0.00,,,0.00,Rainwise IP-100,2013-03-24 02:19:00,
2013-03-23 19:24:00,50.1,43.0,30.29,SW,225,3.3,5.4,77,0.00,,,0.00,Rainwise IP-100,2013-03-24 02:24:00,
2013-03-23 19:29:00,49.9,43.0,30.29,SW,225,2.3,8.2,78,0.00,,,0.00,Rainwise IP-100,2013-03-24 02:29:00,
2013-03-23 19:34:00,49.6,43.0,30.29,West,270,1.9,11.0,79,0.00,,,0.00,Rainwise IP-100,2013-03-24 02:34:00,
2013-03-23 19:39:00,49.4,43.0,30.29,SSE,157,1.6,10.5,79,0.00,,,0.00,Rainwise IP-100,2013-03-24 02:39:00,
2013-03-23 19:44:00,49.3,43.0,30.29,WNW,292,3.0,10.5,80,0.00,,,0.00,Rainwise IP-100,2013-03-24 02:44:00,
2013-03-23 19:49:00,49.1,43.0,30.29,SSW,202,4.2,8.9,80,0.00,,,0.00,Rainwise IP-100,2013-03-24 02:49:00,
2013-03-23 19:54:00,49.0,43.0,30.30,WNW,292,1.4,9.1,81,0.00,,,0.00,Rainwise IP-100,2013-03-24 02:54:00,
2013-03-23 19:59:00,48.9,43.0,30.29,WNW,292,3.7,6.5,81,0.00,,,0.00,Rainwise IP-100,2013-03-24 02:59:00,
2013-03-23 20:04:00,48.7,44.0,30.29,WNW,292,1.9,8.4,82,0.00,,,0.00,Rainwise IP-100,2013-03-24 03:04:00,
2013-03-23 20:09:00,48.6,44.0,30.30,WSW,247,6.5,10.3,82,0.00,,,0.00,Rainwise IP-100,2013-03-24 03:09:00,
2013-03-23 20:14:00,48.5,44.0,30.29,SSW,202,5.1,9.3,82,0.00,,,0.00,Rainwise IP-100,2013-03-24 03:14:00,
2013-03-23 20:19:00,48.4,43.0,30.30,South,180,3.3,10.0,83,0.00,,,0.00,Rainwise IP-100,2013-03-24 03:19:00,
2013-03-23 20:24:00,48.4,43.0,30.30,SSW,202,1.4,12.4,83,0.00,,,0.00,Rainwise IP-100,2013-03-24 03:24:00,
2013-03-23 20:29:00,48.3,44.0,30.30,WSW,247,2.6,15.9,84,0.00,,,0.00,Rainwise IP-100,2013-03-24 03:29:00,
2013-03-23 20:34:00,48.2,44.0,30.30,SW,225,0.0,10.7,84,0.00,,,0.00,Rainwise IP-100,2013-03-24 03:34:00,
2013-03-23 20:39:00,48.1,44.0,30.31,SW,225,5.4,8.2,84,0.00,,,0.00,Rainwise IP-100,2013-03-24 03:39:00,
2013-03-23 20:44:00,48.1,44.0,30.31,WSW,247,2.3,11.2,84,0.00,,,0.00,Rainwise IP-100,2013-03-24 03:44:00,
2013-03-23 20:49:00,48.0,44.0,30.31,SW,225,4.0,12.8,85,0.00,,,0.00,Rainwise IP-100,2013-03-24 03:49:00,
2013-03-23 20:54:00,47.9,44.0,30.30,SW,225,6.5,10.5,85,0.00,,,0.00,Rainwise IP-100,2013-03-24 03:54:00,
2013-03-23 20:59:00,47.9,44.0,30.30,WSW,247,6.8,12.1,85,0.00,,,0.00,Rainwise IP-100,2013-03-24 03:59:00,
2013-03-23 21:00:00,47.9,44.0,30.30,WSW,247,4.9,12.1,85,0.00,,,0.00,Rainwise IP-100,2013-03-24 04:00:00,
2013-03-23 21:01:00,48.0,44.0,30.31,SSW,202,5.4,10.0,85,0.00,,,0.00,Rainwise IP-100,2013-03-24 04:01:00,
2013-03-23 21:06:00,48.0,44.0,30.30,WSW,247,2.1,11.0,86,0.00,,,0.00,Rainwise IP-100,2013-03-24 04:06:00,
2013-03-23 21:11:00,47.9,44.0,30.31,SSE,157,1.9,10.5,86,0.00,,,0.00,Rainwise IP-100,2013-03-24 04:11:00,
2013-03-23 21:16:00,47.8,44.0,30.31,SW,225,7.2,8.6,86,0.00,,,0.00,Rainwise IP-100,2013-03-24 04:16:00,
2013-03-23 21:21:00,47.8,44.0,30.30,WSW,247,4.7,11.2,86,0.00,,,0.00,Rainwise IP-100,2013-03-24 04:21:00,
2013-03-23 21:26:00,47.7,43.0,30.30,SSW,202,7.7,10.7,86,0.00,,,0.00,Rainwise IP-100,2013-03-24 04:26:00,
2013-03-23 21:31:00,47.6,43.0,30.31,South,180,2.3,10.7,86,0.00,,,0.00,Rainwise IP-100,2013-03-24 04:31:00,
2013-03-23 21:36:00,47.6,43.0,30.31,South,180,6.8,10.7,86,0.00,,,0.00,Rainwise IP-100,2013-03-24 04:36:00,
2013-03-23 21:41:00,47.6,43.0,30.31,SSW,202,7.5,9.6,86,0.00,,,0.00,Rainwise IP-100,2013-03-24 04:41:00,
2013-03-23 21:46:00,47.6,44.0,30.31,WSW,247,7.7,9.1,87,0.00,,,0.00,Rainwise IP-100,2013-03-24 04:46:00,
2013-03-23 21:51:00,47.5,44.0,30.31,WSW,247,4.9,10.0,87,0.00,,,0.00,Rainwise IP-100,2013-03-24 04:51:00,
2013-03-23 21:56:00,47.4,44.0,30.31,SW,225,4.0,8.9,87,0.00,,,0.00,Rainwise IP-100,2013-03-24 04:56:00,
2013-03-23 22:01:00,47.4,44.0,30.31,WSW,247,1.2,8.9,87,0.00,,,0.00,Rainwise IP-100,2013-03-24 05:01:00,
2013-03-23 22:06:00,47.3,44.0,30.31,WSW,247,2.3,7.0,87,0.00,,,0.00,Rainwise IP-100,2013-03-24 05:06:00,
2013-03-23 22:11:00,47.3,44.0,30.31,WNW,292,6.8,12.1,87,0.00,,,0.00,Rainwise IP-100,2013-03-24 05:11:00,
2013-03-23 22:16:00,47.3,44.0,30.31,SE,135,4.2,11.7,87,0.00,,,0.00,Rainwise IP-100,2013-03-24 05:16:00,
2013-03-23 22:21:00,47.3,44.0,30.31,SSW,202,6.3,9.8,87,0.00,,,0.00,Rainwise IP-100,2013-03-24 05:21:00,
2013-03-23 22:26:00,47.3,44.0,30.31,SSW,202,1.6,10.7,87,0.00,,,0.00,Rainwise IP-100,2013-03-24 05:26:00,
2013-03-23 22:31:00,47.3,44.0,30.32,SSW,202,2.1,9.8,87,0.00,,,0.00,Rainwise IP-100,2013-03-24 05:31:00,
2013-03-23 22:36:00,47.2,43.0,30.32,SW,225,7.5,9.1,87,0.00,,,0.00,Rainwise IP-100,2013-03-24 05:36:00,
2013-03-23 22:41:00,47.2,43.0,30.32,SW,225,5.1,10.7,88,0.00,,,0.00,Rainwise IP-100,2013-03-24 05:41:00,
2013-03-23 22:46:00,47.2,43.0,30.31,SW,225,6.8,12.1,88,0.00,,,0.00,Rainwise IP-100,2013-03-24 05:46:00,
2013-03-23 22:51:00,47.2,43.0,30.31,SSW,202,5.6,10.5,88,0.00,,,0.00,Rainwise IP-100,2013-03-24 05:51:00,
2013-03-23 22:56:00,47.1,43.0,30.31,SW,225,6.3,11.0,88,0.00,,,0.00,Rainwise IP-100,2013-03-24 05:56:00,
2013-03-23 23:01:00,47.1,43.0,30.31,SW,225,6.5,8.4,88,0.00,,,0.00,Rainwise IP-100,2013-03-24 06:01:00,
2013-03-23 23:06:00,47.1,43.0,30.31,SSW,202,7.5,9.1,88,0.00,,,0.00,Rainwise IP-100,2013-03-24 06:06:00,
2013-03-23 23:11:00,47.1,43.0,30.32,SW,225,4.7,9.8,88,0.00,,,0.00,Rainwise IP-100,2013-03-24 06:11:00,
2013-03-23 23:16:00,47.0,43.0,30.32,West,270,1.9,9.1,88,0.00,,,0.00,Rainwise IP-100,2013-03-24 06:16:00,
2013-03-23 23:21:00,47.1,43.0,30.32,SSE,157,0.0,9.8,88,0.00,,,0.00,Rainwise IP-100,2013-03-24 06:21:00,
2013-03-23 23:26:00,47.1,43.0,30.31,WNW,292,2.1,8.9,88,0.00,,,0.00,Rainwise IP-100,2013-03-24 06:26:00,
2013-03-23 23:31:00,47.1,43.0,30.31,SSE,157,3.0,9.3,88,0.00,,,0.00,Rainwise IP-100,2013-03-24 06:31:00,
2013-03-23 23:36:00,47.1,43.0,30.31,SSW,202,3.3,10.0,88,0.00,,,0.00,Rainwise IP-100,2013-03-24 06:36:00,
2013-03-23 23:41:00,47.0,43.0,30.31,WSW,247,1.6,9.8,88,0.00,,,0.00,Rainwise IP-100,2013-03-24 06:41:00,
2013-03-23 23:46:00,46.9,43.0,30.31,ESE,112,4.0,12.1,89,0.00,,,0.00,Rainwise IP-100,2013-03-24 06:46:00,
2013-03-23 23:52:00,46.9,43.0,30.31,SSW,202,3.0,9.8,89,0.00,,,0.00,Rainwise IP-100,2013-03-24 06:52:00,
2013-03-23 23:57:00,46.9,43.0,30.30,SW,225,7.5,9.8,89,0.00,,,0.00,Rainwise IP-100,2013-03-24 06:57:00,